地図

経路データ

SID SEASON NUMBER BASIN SUBBASIN NAME ISO_TIME NATURE LAT LON WMO_WIND WMO_PRES WMO_AGENCY TRACK_TYPE DIST2LAND LANDFALL IFLAG USA_AGENCY USA_ATCF_ID USA_LAT USA_LON USA_RECORD USA_STATUS USA_WIND USA_PRES USA_SSHS USA_R34_NE USA_R34_SE USA_R34_SW USA_R34_NW USA_R50_NE USA_R50_SE USA_R50_SW USA_R50_NW USA_R64_NE USA_R64_SE USA_R64_SW USA_R64_NW USA_POCI USA_ROCI USA_RMW USA_EYE TOKYO_LAT TOKYO_LON TOKYO_GRADE TOKYO_WIND TOKYO_PRES TOKYO_R50_DIR TOKYO_R50_LONG TOKYO_R50_SHORT TOKYO_R30_DIR TOKYO_R30_LONG TOKYO_R30_SHORT TOKYO_LAND CMA_LAT CMA_LON CMA_CAT CMA_WIND CMA_PRES HKO_LAT HKO_LON HKO_CAT HKO_WIND HKO_PRES NEWDELHI_LAT NEWDELHI_LON NEWDELHI_GRADE NEWDELHI_WIND NEWDELHI_PRES NEWDELHI_CI NEWDELHI_DP NEWDELHI_POCI REUNION_LAT REUNION_LON REUNION_TYPE REUNION_WIND REUNION_PRES REUNION_TNUM REUNION_CI REUNION_RMW REUNION_R34_NE REUNION_R34_SE REUNION_R34_SW REUNION_R34_NW REUNION_R50_NE REUNION_R50_SE REUNION_R50_SW REUNION_R50_NW REUNION_R64_NE REUNION_R64_SE REUNION_R64_SW REUNION_R64_NW BOM_LAT BOM_LON BOM_TYPE BOM_WIND BOM_PRES BOM_TNUM BOM_CI BOM_RMW BOM_R34_NE BOM_R34_SE BOM_R34_SW BOM_R34_NW BOM_R50_NE BOM_R50_SE BOM_R50_SW BOM_R50_NW BOM_R64_NE BOM_R64_SE BOM_R64_SW BOM_R64_NW BOM_ROCI BOM_POCI BOM_EYE BOM_POS_METHOD BOM_PRES_METHOD NADI_LAT NADI_LON NADI_CAT NADI_WIND NADI_PRES WELLINGTON_LAT WELLINGTON_LON WELLINGTON_WIND WELLINGTON_PRES DS824_LAT DS824_LON DS824_STAGE DS824_WIND DS824_PRES TD9636_LAT TD9636_LON TD9636_STAGE TD9636_WIND TD9636_PRES TD9635_LAT TD9635_LON TD9635_WIND TD9635_PRES TD9635_ROCI NEUMANN_LAT NEUMANN_LON NEUMANN_CLASS NEUMANN_WIND NEUMANN_PRES MLC_LAT MLC_LON MLC_CLASS MLC_WIND MLC_PRES USA_GUST BOM_GUST BOM_GUST_PER REUNION_GUST REUNION_GUST_PER USA_SEAHGT USA_SEARAD_NE USA_SEARAD_SE USA_SEARAD_SW USA_SEARAD_NW STORM_SPEED STORM_DIR
1971330N10260 1971 154 EP MM SHARON 1971-11-25 12:00:00 TS 9.50000 -100.000 25 hurdat_epa main 765 765 O________O____ hurdat_epa EP181971 9.50000 -100.000 TD 25 -1 9.50000 -100.000 TC 25 8 279
1971330N10260 1971 154 EP MM SHARON 1971-11-25 15:00:00 TS 9.56008 -100.397 main 770 770 P________P____ EP181971 9.56008 -100.397 TD 25 -1 9.56008 -100.397 TC 25 8 277
1971330N10260 1971 154 EP MM SHARON 1971-11-25 18:00:00 TS 9.60000 -100.800 25 1009 hurdat_epa main 787 787 O________O____ hurdat_epa EP181971 9.60000 -100.800 TD 25 1009 -1 9.60000 -100.800 TC 25 1009 8 273
1971330N10260 1971 154 EP MM SHARON 1971-11-25 21:00:00 TS 9.60748 -101.208 main 801 801 P________P____ EP181971 9.60748 -101.208 TD 25 -1 9.60748 -101.208 TC 25 8 270
1971330N10260 1971 154 EP MM SHARON 1971-11-26 00:00:00 TS 9.60000 -101.600 25 hurdat_epa main 817 817 O________O____ hurdat_epa EP181971 9.60000 -101.600 TD 25 -1 9.60000 -101.600 TC 25 7 269
1971330N10260 1971 154 EP MM SHARON 1971-11-26 03:00:00 TS 9.59244 -101.958 main 833 833 P________P____ EP181971 9.59244 -101.958 TD 25 -1 9.59244 -101.958 TC 25 7 270
1971330N10260 1971 154 EP MM SHARON 1971-11-26 06:00:00 TS 9.60000 -102.300 25 hurdat_epa main 843 843 O________O____ hurdat_epa EP181971 9.60000 -102.300 TD 25 -1 9.60000 -102.300 TC 25 7 275
1971330N10260 1971 154 EP MM SHARON 1971-11-26 09:00:00 TS 9.64989 -102.627 main 854 844 P________P____ EP181971 9.64989 -102.627 TD 25 -1 9.64989 -102.627 TC 25 7 278
1971330N10260 1971 154 EP MM SHARON 1971-11-26 12:00:00 TS 9.70000 -103.000 25 hurdat_epa main 861 861 O________O____ hurdat_epa EP181971 9.70000 -103.000 TD 25 -1 9.70000 -103.000 TC 25 8 273
1971330N10260 1971 154 EP MM SHARON 1971-11-26 15:00:00 TS 9.69998 -103.470 main 885 885 P________P____ EP181971 9.69998 -103.470 TD 25 -1 9.69998 -103.470 TC 25 10 270
1971330N10260 1971 154 EP MM SHARON 1971-11-26 18:00:00 TS 9.70000 -104.000 25 hurdat_epa main 906 906 O________O____ hurdat_epa EP181971 9.70000 -104.000 TD 25 -1 9.70000 -104.000 TC 25 11 273
1971330N10260 1971 154 EP MM SHARON 1971-11-26 21:00:00 TS 9.74995 -104.542 main 926 920 P________P____ EP181971 9.74995 -104.542 TD 30 -1 9.74995 -104.542 TC 30 11 275
1971330N10260 1971 154 EP MM SHARON 1971-11-27 00:00:00 TS 9.80000 -105.100 35 hurdat_epa main 944 944 O________O____ hurdat_epa EP181971 9.80000 -105.100 TS 35 0 9.80000 -105.100 TC 35 11 273
1971330N10260 1971 154 EP MM SHARON 1971-11-27 03:00:00 TS 9.80741 -105.650 main 975 975 P________P____ EP181971 9.80741 -105.650 TS 35 0 9.80741 -105.650 TC 35 11 270
1971330N10260 1971 154 EP MM SHARON 1971-11-27 06:00:00 TS 9.80000 -106.200 35 hurdat_epa main 994 994 O________O____ hurdat_epa EP181971 9.80000 -106.200 TS 35 0 9.80000 -106.200 TC 35 11 269
1971330N10260 1971 154 EP MM SHARON 1971-11-27 09:00:00 TS 9.79245 -106.758 main 1015 1015 P________P____ EP181971 9.79245 -106.758 TS 35 0 9.79245 -106.758 TC 35 11 270
1971330N10260 1971 154 EP MM SHARON 1971-11-27 12:00:00 TS 9.80000 -107.300 35 hurdat_epa main 1036 1036 O________O____ hurdat_epa EP181971 9.80000 -107.300 TS 35 0 9.80000 -107.300 TC 35 10 272
1971330N10260 1971 154 EP MM SHARON 1971-11-27 15:00:00 TS 9.83492 -107.815 main 1058 1058 P________P____ EP181971 9.83492 -107.815 TS 32 -1 9.83492 -107.815 TC 32 10 276
1971330N10260 1971 154 EP MM SHARON 1971-11-27 18:00:00 TS 9.90000 -108.300 30 hurdat_epa main 1073 1073 O________O____ hurdat_epa EP181971 9.90000 -108.300 TD 30 -1 9.90000 -108.300 TC 30 10 279
1971330N10260 1971 154 EP MM SHARON 1971-11-27 21:00:00 TS 9.99246 -108.772 main 1090 1090 P________P____ EP181971 9.99246 -108.772 TD 27 -1 9.99246 -108.772 TC 27 9 283
1971330N10260 1971 154 EP MM SHARON 1971-11-28 00:00:00 TS 10.1000 -109.200 25 hurdat_epa main 1104 1104 O________O____ hurdat_epa EP181971 10.1000 -109.200 TD 25 -1 10.1000 -109.200 TC 25 8 285
1971330N10260 1971 154 EP MM SHARON 1971-11-28 03:00:00 TS 10.1999 -109.573 main 1119 1119 P________P____ EP181971 10.1999 -109.573 TD 25 -1 10.1999 -109.573 TC 25 7 286
1971330N10260 1971 154 EP MM SHARON 1971-11-28 06:00:00 TS 10.3000 -109.900 25 hurdat_epa main 1130 1130 O________O____ hurdat_epa EP181971 10.3000 -109.900 TD 25 -1 10.3000 -109.900 TC 25 7 287
1971330N10260 1971 154 EP MM SHARON 1971-11-28 09:00:00 TS 10.4000 -110.223 main 1141 1141 P________P____ EP181971 10.4000 -110.223 TD 25 -1 10.4000 -110.223 TC 25 6 289
1971330N10260 1971 154 EP MM SHARON 1971-11-28 12:00:00 TS 10.5000 -110.500 25 hurdat_epa main 1150 1146 O________O____ hurdat_epa EP181971 10.5000 -110.500 TD 25 -1 10.5000 -110.500 TC 25 5 291
1971330N10260 1971 154 EP MM SHARON 1971-11-28 15:00:00 TS 10.5925 -110.738 main 1152 1149 P________P____ EP181971 10.5925 -110.738 TD 25 -1 10.5925 -110.738 TC 25 4 297
1971330N10260 1971 154 EP MM SHARON 1971-11-28 18:00:00 TS 10.7000 -110.900 25 hurdat_epa main 1155 1145 O________O____ hurdat_epa EP181971 10.7000 -110.900 TD 25 -1 10.7000 -110.900 TC 25 3 317
1971330N10260 1971 154 EP MM SHARON 1971-11-28 21:00:00 TS 10.8400 -110.975 main 1151 1133 P________P____ EP181971 10.8400 -110.975 TD 25 -1 10.8400 -110.975 TC 25 3 343
1971330N10260 1971 154 EP MM SHARON 1971-11-29 00:00:00 TS 11.0000 -111.000 25 hurdat_epa main 1133 O________O____ hurdat_epa EP181971 11.0000 -111.000 TD 25 -1 11.0000 -111.000 TC 25 3 0

IBTrACS Databaseについて

本データベースは、米国NOAAが公開する1842年以降の世界の熱帯低気圧のベストトラックデータアーカイブInternational Best Track Archive for Climate Stewardship (IBTrACS)を、ウェブで閲覧しやすい形式に変換したものです。

最終更新日:2021-10-19